createdAt,value
2023-03-07T00:00:37.369Z,87.82
2023-03-07T00:01:37.357Z,91.33
2023-03-07T00:02:37.397Z,90.95
2023-03-07T00:03:37.367Z,89.90
2023-03-07T00:04:37.304Z,89.43
2023-03-07T00:05:37.305Z,92.28
2023-03-07T00:06:37.276Z,89.81
2023-03-07T00:07:37.259Z,87.15
2023-03-07T00:08:37.236Z,87.62
2023-03-07T00:09:37.225Z,87.43
2023-03-07T00:10:37.205Z,86.30
2023-03-07T00:11:37.214Z,86.39
2023-03-07T00:12:37.179Z,86.68
2023-03-07T00:13:37.162Z,86.49
2023-03-07T00:14:37.141Z,86.87
2023-03-07T00:15:37.126Z,87.43
2023-03-07T00:16:37.106Z,86.44
2023-03-07T00:17:37.094Z,86.35
2023-03-07T00:18:37.072Z,87.30
2023-03-07T00:19:37.064Z,87.39
2023-03-07T00:20:37.040Z,87.39
2023-03-07T00:21:37.046Z,91.33
2023-03-07T00:22:37.011Z,90.95
2023-03-07T00:23:36.996Z,87.77
2023-03-07T00:24:36.972Z,87.15
2023-03-07T00:25:36.965Z,87.53
2023-03-07T00:26:36.948Z,91.80
2023-03-07T00:27:36.952Z,89.62
2023-03-07T00:28:36.910Z,93.04
2023-03-07T00:29:36.896Z,91.42
2023-03-07T00:30:36.876Z,91.80
2023-03-07T00:31:36.911Z,90.57
2023-03-07T00:32:36.985Z,87.34
2023-03-07T00:33:36.834Z,88.48
2023-03-07T00:34:36.811Z,87.34
2023-03-07T00:35:36.817Z,86.49
2023-03-07T00:36:36.777Z,88.76
2023-03-07T00:37:36.766Z,87.34
2023-03-07T00:38:36.746Z,85.91
2023-03-07T00:39:36.732Z,87.24
2023-03-07T00:40:36.713Z,87.15
2023-03-07T00:41:36.701Z,87.43
2023-03-07T00:42:36.681Z,86.20
2023-03-07T00:43:36.694Z,85.25
2023-03-07T00:44:36.649Z,85.25
2023-03-07T00:45:36.658Z,85.91
2023-03-07T00:46:36.622Z,84.97
2023-03-07T00:47:36.602Z,86.49
2023-03-07T00:48:36.586Z,87.43
2023-03-07T00:49:36.569Z,86.11
2023-03-07T00:50:36.555Z,85.82
2023-03-07T00:51:36.538Z,87.05
2023-03-07T00:52:36.523Z,86.01
2023-03-07T00:53:36.511Z,87.24
2023-03-07T00:54:36.695Z,86.77
2023-03-07T00:55:36.478Z,89.81
2023-03-07T00:56:36.462Z,89.33
2023-03-07T00:57:36.441Z,86.68
2023-03-07T00:58:36.440Z,88.39
2023-03-07T00:59:36.429Z,87.43
2023-03-07T01:00:36.425Z,85.82
2023-03-07T01:01:36.373Z,87.34
2023-03-07T01:02:36.367Z,86.58
2023-03-07T01:03:36.351Z,84.97
2023-03-07T01:04:36.371Z,84.49
2023-03-07T01:05:36.308Z,83.92
2023-03-07T01:06:36.295Z,85.44
2023-03-07T01:07:36.280Z,86.87
2023-03-07T01:08:36.261Z,86.11
2023-03-07T01:09:36.242Z,84.97
2023-03-07T01:10:36.228Z,84.78
2023-03-07T01:11:36.221Z,84.11
2023-03-07T01:12:36.197Z,85.72
2023-03-07T01:13:36.176Z,86.58
2023-03-07T01:14:36.165Z,86.39
2023-03-07T01:15:36.165Z,87.43
2023-03-07T01:16:36.193Z,85.72
2023-03-07T01:17:36.118Z,85.16
2023-03-07T01:18:36.099Z,84.78
2023-03-07T01:19:36.079Z,85.44
2023-03-07T01:20:36.067Z,86.39
2023-03-07T01:21:36.050Z,85.72
2023-03-07T01:22:36.040Z,86.11
2023-03-07T01:23:36.014Z,84.59
2023-03-07T01:24:36.003Z,83.78
2023-03-07T01:25:35.982Z,83.69
2023-03-07T01:26:35.971Z,87.30
2023-03-07T01:27:35.950Z,90.28
2023-03-07T01:28:35.936Z,88.86
2023-03-07T01:29:35.917Z,87.82
2023-03-07T01:30:35.909Z,84.59
2023-03-07T01:31:36.016Z,85.25
2023-03-07T01:32:35.995Z,86.68
2023-03-07T01:33:35.854Z,84.97
2023-03-07T01:34:35.836Z,85.91
2023-03-07T01:35:35.855Z,86.68
2023-03-07T01:36:35.839Z,85.53
2023-03-07T01:37:35.786Z,84.97
2023-03-07T01:38:35.788Z,85.25
2023-03-07T01:39:35.775Z,84.36
2023-03-07T01:40:35.738Z,84.36
2023-03-07T01:41:35.724Z,84.78
2023-03-07T01:42:35.706Z,86.39
2023-03-07T01:43:35.692Z,84.64
2023-03-07T01:44:35.714Z,83.88
2023-03-07T01:45:35.688Z,84.64
2023-03-07T01:46:35.642Z,88.95
2023-03-07T01:47:35.644Z,87.58
2023-03-07T01:48:35.606Z,87.24
2023-03-07T01:49:35.645Z,85.82
2023-03-07T01:50:35.574Z,86.82
2023-03-07T01:51:35.556Z,86.01
2023-03-07T01:52:35.557Z,87.82
2023-03-07T01:53:35.521Z,87.82
2023-03-07T01:54:35.507Z,85.44
2023-03-07T01:55:35.486Z,84.92
2023-03-07T01:56:35.477Z,85.53
2023-03-07T01:57:35.485Z,84.40
2023-03-07T01:58:35.469Z,84.01
2023-03-07T01:59:35.430Z,83.12
2023-03-07T02:00:35.405Z,84.87
2023-03-07T02:01:35.430Z,84.36
2023-03-07T02:02:35.376Z,84.83
2023-03-07T02:03:35.382Z,84.07
2023-03-07T02:04:35.398Z,84.36
2023-03-07T02:05:35.320Z,84.45
2023-03-07T02:06:35.309Z,84.92
2023-03-07T02:07:35.287Z,84.74
2023-03-07T02:08:35.276Z,84.36
2023-03-07T02:09:35.255Z,85.68
2023-03-07T02:10:35.271Z,85.21
2023-03-07T02:11:35.233Z,85.11
2023-03-07T02:12:35.216Z,90.05
2023-03-07T02:13:35.188Z,86.72
2023-03-07T02:14:35.176Z,86.25
2023-03-07T02:15:35.239Z,86.44
2023-03-07T02:16:35.144Z,85.68
2023-03-07T02:17:35.130Z,84.55
2023-03-07T02:18:35.109Z,86.25
2023-03-07T02:19:35.111Z,85.21
2023-03-07T02:20:35.080Z,84.26
2023-03-07T02:21:35.058Z,83.78
2023-03-07T02:22:35.046Z,84.17
2023-03-07T02:23:35.022Z,84.92
2023-03-07T02:24:35.015Z,85.40
2023-03-07T02:25:34.991Z,86.35
2023-03-07T02:26:34.978Z,87.11
2023-03-07T02:27:34.958Z,84.64
2023-03-07T02:28:34.948Z,84.64
2023-03-07T02:29:34.929Z,86.16
2023-03-07T02:30:34.920Z,85.40
2023-03-07T02:31:34.895Z,86.63
2023-03-07T02:32:34.959Z,87.39
2023-03-07T02:33:34.873Z,86.54
2023-03-07T02:34:34.858Z,85.30
2023-03-07T02:35:34.878Z,84.17
2023-03-07T02:36:34.853Z,83.78
2023-03-07T02:37:34.804Z,84.45
2023-03-07T02:38:34.781Z,84.36
2023-03-07T02:39:34.761Z,84.92
2023-03-07T02:40:34.748Z,88.06
2023-03-07T02:41:34.733Z,87.20
2023-03-07T02:42:34.715Z,85.87
2023-03-07T02:43:34.696Z,86.44
2023-03-07T02:44:34.682Z,85.68
2023-03-07T02:45:34.663Z,84.45
2023-03-07T02:46:34.684Z,84.26
2023-03-07T02:47:34.637Z,83.78
2023-03-07T02:48:34.617Z,83.12
2023-03-07T02:49:34.602Z,85.30
2023-03-07T02:50:34.585Z,84.36
2023-03-07T02:51:34.610Z,84.45
2023-03-07T02:52:34.553Z,84.45
2023-03-07T02:53:34.531Z,84.92
2023-03-07T02:54:34.527Z,86.91
2023-03-07T02:55:34.497Z,86.44
2023-03-07T02:56:34.489Z,85.11
2023-03-07T02:57:34.470Z,86.91
2023-03-07T02:58:34.460Z,84.45
2023-03-07T02:59:34.432Z,83.40
2023-03-07T03:00:34.420Z,82.55
2023-03-07T03:01:34.413Z,82.65
2023-03-07T03:02:34.388Z,82.84
2023-03-07T03:03:34.368Z,83.31
2023-03-07T03:04:34.427Z,84.17
2023-03-07T03:05:34.339Z,84.74
2023-03-07T03:06:34.324Z,84.92
2023-03-07T03:07:34.324Z,86.44
2023-03-07T03:08:34.289Z,84.36
2023-03-07T03:09:34.272Z,83.31
2023-03-07T03:10:34.258Z,83.78
2023-03-07T03:11:34.238Z,83.97
2023-03-07T03:12:34.237Z,83.88
2023-03-07T03:13:34.206Z,83.69
2023-03-07T03:14:34.192Z,83.59
2023-03-07T03:15:34.172Z,83.74
2023-03-07T03:16:34.243Z,84.55
2023-03-07T03:17:34.149Z,83.94
2023-03-07T03:18:34.134Z,84.31
2023-03-07T03:19:34.108Z,84.31
2023-03-07T03:20:34.101Z,84.22
2023-03-07T03:21:34.077Z,85.17
2023-03-07T03:22:34.062Z,85.17
2023-03-07T03:23:34.060Z,86.02
2023-03-07T03:24:34.034Z,85.83
2023-03-07T03:25:34.010Z,87.06
2023-03-07T03:26:34.000Z,86.11
2023-03-07T03:27:33.975Z,86.21
2023-03-07T03:28:33.965Z,86.30
2023-03-07T03:29:33.943Z,85.64
2023-03-07T03:30:33.929Z,87.45
2023-03-07T03:31:34.037Z,86.68
2023-03-07T03:32:33.965Z,86.30
2023-03-07T03:33:33.874Z,86.40
2023-03-07T03:34:33.862Z,87.25
2023-03-07T03:35:33.906Z,88.10
2023-03-07T03:36:33.829Z,87.16
2023-03-07T03:37:33.810Z,86.97
2023-03-07T03:38:33.798Z,86.40
2023-03-07T03:39:33.796Z,86.49
2023-03-07T03:40:33.762Z,87.45
2023-03-07T03:41:33.743Z,88.20
2023-03-07T03:42:33.729Z,88.29
2023-03-07T03:43:33.708Z,87.45
2023-03-07T03:44:33.699Z,88.68
2023-03-07T03:45:33.677Z,88.01
2023-03-07T03:46:33.680Z,87.25
2023-03-07T03:47:33.642Z,87.82
2023-03-07T03:48:33.637Z,88.77
2023-03-07T03:49:33.610Z,89.62
2023-03-07T03:50:33.597Z,89.43
2023-03-07T03:51:33.575Z,88.87
2023-03-07T03:52:33.564Z,88.20
2023-03-07T03:53:33.543Z,89.72
2023-03-07T03:54:33.530Z,89.25
2023-03-07T03:55:33.575Z,88.20
2023-03-07T03:56:33.499Z,89.53
2023-03-07T03:57:33.489Z,89.53
2023-03-07T03:58:33.465Z,88.58
2023-03-07T03:59:33.456Z,88.58
2023-03-07T04:00:33.430Z,89.43
2023-03-07T04:01:33.412Z,88.10
2023-03-07T04:02:33.566Z,89.15
2023-03-07T04:03:33.385Z,88.39
2023-03-07T04:04:33.365Z,88.29
2023-03-07T04:05:33.343Z,88.29
2023-03-07T04:06:33.330Z,90.95
2023-03-07T04:07:33.313Z,90.19
2023-03-07T04:08:33.315Z,89.91
2023-03-07T04:09:33.291Z,88.58
2023-03-07T04:10:33.268Z,88.58
2023-03-07T04:11:33.361Z,89.53
2023-03-07T04:12:33.229Z,89.91
2023-03-07T04:13:33.210Z,89.25
2023-03-07T04:14:33.196Z,90.19
2023-03-07T04:15:33.174Z,88.96
2023-03-07T04:16:33.211Z,88.77
2023-03-07T04:17:33.144Z,88.20
2023-03-07T04:18:33.133Z,88.96
2023-03-07T04:19:33.112Z,89.25
2023-03-07T04:20:33.094Z,89.06
2023-03-07T04:21:33.078Z,89.81
2023-03-07T04:22:33.062Z,88.87
2023-03-07T04:23:33.043Z,89.25
2023-03-07T04:24:33.029Z,89.06
2023-03-07T04:25:33.049Z,89.91
2023-03-07T04:26:32.994Z,90.00
2023-03-07T04:27:32.996Z,89.15
2023-03-07T04:28:32.960Z,88.68
2023-03-07T04:29:32.941Z,88.68
2023-03-07T04:30:32.928Z,89.15
2023-03-07T04:31:32.962Z,89.25
2023-03-07T04:32:32.976Z,89.34
2023-03-07T04:33:32.874Z,90.19
2023-03-07T04:34:32.890Z,90.19
2023-03-07T04:35:32.913Z,89.43
2023-03-07T04:36:32.827Z,92.47
2023-03-07T04:37:32.807Z,90.19
2023-03-07T04:38:32.793Z,89.25
2023-03-07T04:39:32.772Z,88.77
2023-03-07T04:40:32.759Z,89.72
2023-03-07T04:41:32.760Z,90.00
2023-03-07T04:42:32.741Z,89.25
2023-03-07T04:43:32.834Z,89.34
2023-03-07T04:44:32.694Z,88.77
2023-03-07T04:45:32.678Z,88.68
2023-03-07T04:46:32.687Z,89.53
2023-03-07T04:47:32.641Z,90.19
2023-03-07T04:48:32.626Z,89.34
2023-03-07T04:49:32.609Z,91.61
2023-03-07T04:50:32.601Z,93.41
2023-03-07T04:51:32.576Z,90.67
2023-03-07T04:52:32.563Z,89.06
2023-03-07T04:53:32.542Z,88.58
2023-03-07T04:54:32.565Z,88.29
2023-03-07T04:55:32.508Z,88.29
2023-03-07T04:56:32.493Z,88.29
2023-03-07T04:57:32.485Z,89.25
2023-03-07T04:58:32.461Z,88.58
2023-03-07T04:59:32.470Z,88.29
2023-03-07T05:00:32.426Z,89.53
2023-03-07T05:01:32.435Z,88.68
2023-03-07T05:02:32.394Z,87.92
2023-03-07T05:03:32.375Z,88.29
2023-03-07T05:04:32.401Z,91.42
2023-03-07T05:05:32.344Z,90.76
2023-03-07T05:06:32.340Z,91.14
2023-03-07T05:07:32.316Z,89.53
2023-03-07T05:08:32.303Z,89.43
2023-03-07T05:09:32.277Z,89.34
2023-03-07T05:10:32.261Z,89.53
2023-03-07T05:11:32.247Z,89.81
2023-03-07T05:12:32.235Z,89.25
2023-03-07T05:13:32.223Z,89.25
2023-03-07T05:14:32.216Z,88.20
2023-03-07T05:15:32.258Z,90.29
2023-03-07T05:16:32.171Z,90.57
2023-03-07T05:17:32.181Z,90.19
2023-03-07T05:18:32.124Z,89.62
2023-03-07T05:19:32.108Z,88.96
2023-03-07T05:20:32.087Z,88.48
2023-03-07T05:21:32.083Z,88.58
2023-03-07T05:22:32.055Z,90.19
2023-03-07T05:23:32.058Z,90.76
2023-03-07T05:24:32.043Z,88.68
2023-03-07T05:25:32.007Z,87.73
2023-03-07T05:26:31.988Z,88.10
2023-03-07T05:27:31.975Z,87.82
2023-03-07T05:28:31.956Z,87.92
2023-03-07T05:29:31.940Z,87.92
2023-03-07T05:30:31.926Z,90.10
2023-03-07T05:31:32.023Z,91.42
2023-03-07T05:32:31.925Z,88.96
2023-03-07T05:33:31.883Z,89.34
2023-03-07T05:34:31.878Z,89.43
2023-03-07T05:35:31.888Z,88.58
2023-03-07T05:36:31.825Z,88.01
2023-03-07T05:37:31.818Z,88.29
2023-03-07T05:38:31.787Z,88.01
2023-03-07T05:39:31.772Z,88.20
2023-03-07T05:40:31.753Z,88.29
2023-03-07T05:41:31.738Z,91.14
2023-03-07T05:42:31.720Z,89.25
2023-03-07T05:43:31.705Z,88.01
2023-03-07T05:44:33.774Z,88.39
2023-03-07T05:45:31.672Z,88.87
2023-03-07T05:46:31.686Z,88.20
2023-03-07T05:47:31.673Z,88.87
2023-03-07T05:48:31.625Z,87.92
2023-03-07T05:49:31.616Z,87.54
2023-03-07T05:50:31.596Z,88.01
2023-03-07T05:51:31.573Z,88.29
2023-03-07T05:52:31.574Z,88.87
2023-03-07T05:53:31.546Z,89.15
2023-03-07T05:54:31.519Z,90.86
2023-03-07T05:55:31.506Z,91.52
2023-03-07T05:56:31.489Z,88.77
2023-03-07T05:57:31.474Z,89.72
2023-03-07T05:58:31.454Z,89.15
2023-03-07T05:59:31.437Z,88.77
2023-03-07T06:00:31.418Z,89.25
2023-03-07T06:01:31.405Z,88.20
2023-03-07T06:02:31.443Z,87.82
2023-03-07T06:03:31.514Z,89.15
2023-03-07T06:04:31.352Z,89.34
2023-03-07T06:05:31.349Z,90.57
2023-03-07T06:06:31.326Z,91.14
2023-03-07T06:07:31.305Z,89.34
2023-03-07T06:08:31.293Z,89.06
2023-03-07T06:09:31.275Z,87.63
2023-03-07T06:10:31.255Z,87.35
2023-03-07T06:11:31.237Z,88.68
2023-03-07T06:12:31.228Z,87.92
2023-03-07T06:13:31.209Z,88.58
2023-03-07T06:14:31.199Z,88.29
2023-03-07T06:15:31.176Z,87.82
2023-03-07T06:16:31.151Z,87.73
2023-03-07T06:17:31.137Z,87.35
2023-03-07T06:18:31.119Z,88.58
2023-03-07T06:19:31.124Z,88.29
2023-03-07T06:20:31.088Z,87.35
2023-03-07T06:21:31.069Z,87.92
2023-03-07T06:22:31.053Z,88.01
2023-03-07T06:23:31.036Z,88.01
2023-03-07T06:24:31.019Z,87.92
2023-03-07T06:25:31.010Z,88.20
2023-03-07T06:26:30.983Z,88.58
2023-03-07T06:27:30.970Z,88.68
2023-03-07T06:28:32.815Z,88.58
2023-03-07T06:29:30.939Z,88.77
2023-03-07T06:30:30.920Z,88.58
2023-03-07T06:31:31.008Z,88.20
2023-03-07T06:32:30.980Z,88.20
2023-03-07T06:33:30.874Z,88.10
2023-03-07T06:34:30.852Z,87.25
2023-03-07T06:35:30.961Z,87.73
2023-03-07T06:36:30.821Z,88.58
2023-03-07T06:37:30.804Z,88.29
2023-03-07T06:38:30.784Z,87.73
2023-03-07T06:39:31.468Z,87.63
2023-03-07T06:40:30.754Z,88.29
2023-03-07T06:41:30.747Z,88.29
2023-03-07T06:42:30.720Z,87.06
2023-03-07T06:43:30.706Z,86.87
2023-03-07T06:44:30.683Z,87.92
2023-03-07T06:45:30.713Z,87.54
2023-03-07T06:46:30.652Z,87.73
2023-03-07T06:47:30.644Z,89.00
2023-03-07T06:48:30.626Z,89.29
2023-03-07T06:49:30.618Z,88.91
2023-03-07T06:50:35.563Z,87.20
2023-03-07T06:51:30.599Z,89.29
2023-03-07T06:52:30.555Z,88.34
2023-03-07T06:53:30.544Z,88.81
2023-03-07T06:54:30.519Z,88.24
2023-03-07T06:55:30.505Z,87.20
2023-03-07T06:56:30.489Z,87.11
2023-03-07T06:57:30.477Z,87.49
2023-03-07T06:58:30.452Z,87.96
2023-03-07T06:59:30.441Z,87.30
2023-03-07T07:00:30.418Z,87.11
2023-03-07T07:01:30.406Z,85.68
2023-03-07T07:02:30.549Z,86.07
2023-03-07T07:03:30.383Z,86.72
2023-03-07T07:04:30.361Z,86.63
2023-03-07T07:05:30.341Z,86.44
2023-03-07T07:06:30.318Z,88.62
2023-03-07T07:07:30.329Z,87.77
2023-03-07T07:08:30.285Z,86.63
2023-03-07T07:09:30.275Z,86.63
2023-03-07T07:10:30.269Z,87.87
2023-03-07T07:11:30.239Z,90.24
2023-03-07T07:12:30.220Z,90.47
2023-03-07T07:13:30.207Z,86.63
2023-03-07T07:14:30.192Z,85.87
2023-03-07T07:15:30.172Z,85.59
2023-03-07T07:16:30.227Z,85.97
2023-03-07T07:17:30.139Z,86.63
2023-03-07T07:18:30.120Z,87.62
2023-03-07T07:19:30.108Z,88.48
2023-03-07T07:20:30.102Z,88.29
2023-03-07T07:21:30.073Z,87.24
2023-03-07T07:22:30.059Z,85.82
2023-03-07T07:23:30.072Z,85.06
2023-03-07T07:24:30.038Z,84.87
2023-03-07T07:25:30.010Z,86.20
2023-03-07T07:26:29.991Z,87.43
2023-03-07T07:27:30.013Z,85.72
2023-03-07T07:28:29.957Z,86.11
2023-03-07T07:29:29.942Z,85.82
2023-03-07T07:30:29.922Z,85.25
2023-03-07T07:31:29.950Z,86.01
2023-03-07T07:32:30.070Z,86.49
2023-03-07T07:33:29.912Z,84.97
2023-03-07T07:34:29.857Z,86.20
2023-03-07T07:35:29.854Z,85.16
2023-03-07T07:36:29.835Z,86.20
2023-03-07T07:37:29.813Z,84.40
2023-03-07T07:38:29.793Z,84.01
2023-03-07T07:39:29.810Z,85.53
2023-03-07T07:40:29.763Z,83.92
2023-03-07T07:41:29.757Z,87.48
2023-03-07T07:42:32.099Z,84.44
2023-03-07T07:43:29.724Z,83.11
2023-03-07T07:44:29.698Z,83.11
2023-03-07T07:45:29.692Z,83.59
2023-03-07T07:46:29.666Z,83.49
2023-03-07T07:47:29.653Z,83.30
2023-03-07T07:48:29.636Z,85.20
2023-03-07T07:49:29.624Z,83.97
2023-03-07T07:50:29.606Z,83.87
2023-03-07T07:51:29.591Z,83.20
2023-03-07T07:52:29.573Z,82.07
2023-03-07T07:53:29.559Z,83.39
2023-03-07T07:54:29.546Z,83.49
2023-03-07T07:55:29.563Z,81.97
2023-03-07T07:56:29.508Z,85.39
2023-03-07T07:57:29.502Z,84.25
2023-03-07T07:58:29.490Z,83.97
2023-03-07T07:59:29.464Z,83.01
2023-03-07T08:00:29.444Z,81.49
2023-03-07T08:01:29.434Z,80.93
2023-03-07T08:02:29.460Z,82.16
2023-03-07T08:03:29.416Z,80.93
2023-03-07T08:04:29.381Z,81.78
2023-03-07T08:05:29.372Z,82.26
2023-03-07T08:06:29.354Z,83.20
2023-03-07T08:07:29.339Z,82.64
2023-03-07T08:08:29.328Z,83.87
2023-03-07T08:09:29.304Z,84.48
2023-03-07T08:10:29.291Z,85.05
2023-03-07T08:11:29.296Z,82.96
2023-03-07T08:12:29.257Z,81.25
2023-03-07T08:13:29.244Z,81.06
2023-03-07T08:14:29.236Z,83.15
2023-03-07T08:15:29.339Z,80.49
2023-03-07T08:16:29.194Z,79.25
2023-03-07T08:17:29.181Z,79.35
2023-03-07T08:18:29.167Z,83.25
2023-03-07T08:19:29.151Z,82.49
2023-03-07T08:20:29.130Z,83.06
2023-03-07T08:21:29.121Z,80.49
2023-03-07T08:22:29.107Z,79.44
2023-03-07T08:23:29.089Z,80.11
2023-03-07T08:24:39.896Z,81.16
2023-03-07T08:25:29.058Z,79.35
2023-03-07T08:26:29.048Z,78.97
2023-03-07T08:27:29.050Z,78.11
2023-03-07T08:28:29.008Z,77.49
2023-03-07T08:29:28.995Z,78.02
2023-03-07T08:30:28.976Z,79.77
2023-03-07T08:31:29.038Z,77.87
2023-03-07T08:32:28.977Z,81.86
2023-03-07T08:33:28.938Z,82.81
2023-03-07T08:34:28.920Z,79.86
2023-03-07T08:35:28.973Z,77.49
2023-03-07T08:36:28.885Z,78.44
2023-03-07T08:37:28.877Z,77.77
2023-03-07T08:38:28.855Z,77.97
2023-03-07T08:39:28.843Z,78.25
2023-03-07T08:40:28.824Z,78.34
2023-03-07T08:41:28.819Z,77.58
2023-03-07T08:42:28.872Z,77.58
2023-03-07T08:43:28.803Z,79.39
2023-03-07T08:44:28.764Z,80.82
2023-03-07T08:45:28.756Z,79.49
2023-03-07T08:46:28.763Z,78.25
2023-03-07T08:47:28.722Z,79.11
2023-03-07T08:48:28.699Z,78.91
2023-03-07T08:49:28.688Z,78.16
2023-03-07T08:50:28.677Z,77.68
2023-03-07T08:51:28.659Z,78.72
2023-03-07T08:52:28.643Z,80.66
2023-03-07T08:53:28.626Z,81.43
2023-03-07T08:54:28.607Z,80.86
2023-03-07T08:55:28.594Z,76.39
2023-03-07T08:56:28.576Z,75.53
2023-03-07T08:57:28.563Z,76.57
2023-03-07T08:58:28.553Z,76.39
2023-03-07T08:59:28.568Z,75.43
2023-03-07T09:00:28.515Z,74.01
2023-03-07T09:01:28.560Z,74.29
2023-03-07T09:02:28.492Z,74.39
2023-03-07T09:03:28.479Z,77.43
2023-03-07T09:04:28.496Z,76.39
2023-03-07T09:05:28.451Z,73.91
2023-03-07T09:06:28.425Z,74.20
2023-03-07T09:07:28.416Z,72.01
2023-03-07T09:08:28.397Z,74.87
2023-03-07T09:09:28.392Z,73.44
2023-03-07T09:10:28.368Z,72.01
2023-03-07T09:11:28.364Z,71.06
2023-03-07T09:12:28.336Z,72.49
2023-03-07T09:13:28.326Z,72.67
2023-03-07T09:14:28.310Z,74.20
2023-03-07T09:15:28.420Z,74.67
2023-03-07T09:16:28.302Z,77.56
2023-03-07T09:17:28.266Z,74.29
2023-03-07T09:18:30.281Z,73.53
2023-03-07T09:19:28.240Z,73.10
2023-03-07T09:20:28.228Z,73.47
2023-03-07T09:21:28.209Z,71.53
2023-03-07T09:22:28.197Z,72.05
2023-03-07T09:23:28.179Z,74.90
2023-03-07T09:24:28.168Z,76.81
2023-03-07T09:25:28.152Z,71.76
2023-03-07T09:26:28.141Z,70.87
2023-03-07T09:27:28.124Z,72.81
2023-03-07T09:28:28.113Z,72.01
2023-03-07T09:29:28.115Z,72.11
2023-03-07T09:30:28.092Z,71.82
2023-03-07T09:31:28.141Z,72.86
2023-03-07T09:32:28.085Z,75.76
2023-03-07T09:33:28.041Z,75.38
2023-03-07T09:34:28.027Z,73.85
2023-03-07T09:35:28.015Z,74.27
2023-03-07T09:36:28.010Z,76.08
2023-03-07T09:37:27.983Z,72.94
2023-03-07T09:38:27.969Z,74.37
2023-03-07T09:39:27.955Z,73.22
2023-03-07T09:40:27.945Z,72.08
2023-03-07T09:41:27.925Z,69.32
2023-03-07T09:42:27.926Z,69.04
2023-03-07T09:43:27.894Z,71.89
2023-03-07T09:44:27.884Z,73.41
2023-03-07T09:45:27.927Z,72.94
2023-03-07T09:46:27.857Z,71.42
2023-03-07T09:47:27.857Z,72.08
2023-03-07T09:48:27.828Z,70.08
2023-03-07T09:49:27.812Z,72.88
2023-03-07T09:50:27.806Z,71.93
2023-03-07T09:51:27.784Z,70.12
2023-03-07T09:52:27.773Z,68.88
2023-03-07T09:53:27.756Z,68.12
2023-03-07T09:54:27.748Z,69.74
2023-03-07T09:55:27.729Z,70.31
2023-03-07T09:56:27.719Z,68.59
2023-03-07T09:57:27.709Z,69.26
2023-03-07T09:58:27.691Z,67.74
2023-03-07T09:59:27.672Z,69.74
2023-03-07T10:00:27.664Z,72.31
2023-03-07T10:01:27.647Z,71.39
2023-03-07T10:02:27.640Z,67.45
2023-03-07T10:03:27.705Z,68.30
2023-03-07T10:04:27.696Z,69.83
2023-03-07T10:05:27.601Z,68.12
2023-03-07T10:06:27.590Z,67.74
2023-03-07T10:07:27.572Z,67.55
2023-03-07T10:08:27.554Z,67.64
2023-03-07T10:09:27.587Z,72.12
2023-03-07T10:10:27.527Z,69.35
2023-03-07T10:11:27.540Z,71.07
2023-03-07T10:12:27.500Z,70.88
2023-03-07T10:13:27.486Z,71.55
2023-03-07T10:14:27.492Z,69.48
2023-03-07T10:15:27.511Z,71.39
2023-03-07T10:16:27.531Z,71.68
2023-03-07T10:17:27.430Z,72.16
2023-03-07T10:18:27.432Z,72.92
2023-03-07T10:19:27.463Z,71.52
2023-03-07T10:20:27.394Z,70.38
2023-03-07T10:21:27.382Z,67.61
2023-03-07T10:22:27.368Z,68.09
2023-03-07T10:23:27.351Z,67.29
2023-03-07T10:24:27.342Z,65.58
2023-03-07T10:25:27.323Z,65.58
2023-03-07T10:26:27.313Z,67.29
2023-03-07T10:27:27.304Z,66.24
2023-03-07T10:28:27.292Z,66.82
2023-03-07T10:30:27.256Z,68.53
2023-03-07T10:31:27.302Z,67.77
2023-03-07T10:32:27.361Z,68.15
2023-03-07T10:33:27.218Z,67.96
2023-03-07T10:34:27.865Z,67.48
2023-03-07T10:35:27.215Z,66.63
2023-03-07T10:36:27.174Z,68.24
2023-03-07T10:37:27.164Z,67.39
2023-03-07T10:38:27.145Z,66.63
2023-03-07T10:39:27.139Z,66.53
2023-03-07T10:40:27.120Z,68.05
2023-03-07T10:41:27.115Z,67.52
2023-03-07T10:42:27.104Z,67.99
2023-03-07T10:43:27.093Z,67.33
2023-03-07T10:44:27.066Z,66.44
2023-03-07T10:45:27.057Z,64.81
2023-03-07T10:46:27.540Z,67.48
2023-03-07T10:47:27.055Z,66.63
2023-03-07T10:48:27.015Z,65.13
2023-03-07T10:49:27.005Z,69.33
2023-03-07T10:50:27.000Z,69.43
2023-03-07T10:51:27.009Z,67.23
2023-03-07T10:52:26.962Z,67.33
2023-03-07T10:53:26.951Z,64.65
2023-03-07T10:54:29.752Z,62.56
2023-03-07T10:55:26.937Z,64.94
2023-03-07T10:56:26.917Z,65.89
2023-03-07T10:57:26.902Z,65.42
2023-03-07T10:58:26.889Z,66.47
2023-03-07T10:59:26.873Z,64.75
2023-03-07T11:00:26.856Z,65.61
2023-03-07T11:01:26.916Z,65.23
2023-03-07T11:02:26.831Z,68.18
2023-03-07T11:03:26.821Z,69.46
2023-03-07T11:04:26.871Z,67.36
2023-03-07T11:05:26.804Z,65.17
2023-03-07T11:06:26.779Z,65.77
2023-03-07T11:07:26.794Z,64.91
2023-03-07T11:08:26.755Z,65.58
2023-03-07T11:09:26.777Z,62.15
2023-03-07T11:10:26.728Z,62.24
2023-03-07T11:11:26.721Z,62.91
2023-03-07T11:12:26.711Z,64.05
2023-03-07T11:14:26.683Z,64.15
2023-03-07T11:15:26.667Z,62.34
2023-03-07T11:16:26.729Z,64.15
2023-03-07T11:17:26.644Z,67.49
2023-03-07T11:18:26.640Z,65.01
2023-03-07T11:19:26.620Z,65.07
2023-03-07T11:20:29.169Z,64.69
2023-03-07T11:21:26.596Z,66.69
2023-03-07T11:22:26.584Z,65.55
2023-03-07T11:23:26.593Z,63.92
2023-03-07T11:24:26.594Z,62.37
2023-03-07T11:25:26.582Z,62.21
2023-03-07T11:26:28.946Z,64.31
2023-03-07T11:27:26.518Z,65.07
2023-03-07T11:28:26.508Z,64.84
2023-03-07T11:29:26.496Z,65.58
2023-03-07T11:30:26.487Z,68.62
2023-03-07T11:31:26.603Z,70.84
2023-03-07T11:32:26.494Z,69.60
2023-03-07T11:33:26.457Z,67.19
2023-03-07T11:34:26.434Z,66.24
2023-03-07T11:35:26.417Z,67.38
2023-03-07T11:36:26.410Z,69.32
2023-03-07T11:37:26.392Z,70.08
2023-03-07T11:38:26.394Z,70.37
2023-03-07T11:39:26.396Z,67.61
2023-03-07T11:40:26.391Z,66.56
2023-03-07T11:41:26.372Z,66.18
2023-03-07T11:42:26.339Z,72.08
2023-03-07T11:43:26.315Z,70.56
2023-03-07T11:44:26.304Z,70.56
2023-03-07T11:45:26.304Z,68.37
2023-03-07T11:46:26.314Z,71.45
2023-03-07T11:47:26.261Z,70.75
2023-03-07T11:48:26.253Z,72.12
2023-03-07T11:49:26.235Z,70.12
2023-03-07T11:50:26.233Z,71.83
2023-03-07T11:51:26.206Z,70.59
2023-03-07T11:52:26.216Z,72.78
2023-03-07T11:53:26.197Z,71.36
2023-03-07T11:54:26.171Z,70.69
2023-03-07T11:55:26.174Z,70.97
2023-03-07T11:56:26.170Z,67.61
2023-03-07T11:57:26.133Z,69.42
2023-03-07T11:58:26.131Z,72.12
2023-03-07T12:00:26.096Z,73.65
2023-03-07T12:01:26.080Z,71.73
2023-03-07T12:02:26.070Z,71.55
2023-03-07T12:03:26.054Z,71.07
2023-03-07T12:04:26.037Z,72.69
2023-03-07T12:05:26.065Z,74.16
2023-03-07T12:06:26.010Z,74.06
2023-03-07T12:07:26.001Z,74.25
2023-03-07T12:08:25.983Z,68.53
2023-03-07T12:09:25.974Z,66.78
2023-03-07T12:10:25.958Z,66.46
2023-03-07T12:11:26.006Z,69.99
2023-03-07T12:12:25.932Z,69.60
2023-03-07T12:13:25.925Z,73.22
2023-03-07T12:14:25.911Z,71.51
2023-03-07T12:15:25.897Z,71.42
2023-03-07T12:16:25.948Z,72.08
2023-03-07T12:17:25.872Z,72.08
2023-03-07T12:18:25.868Z,75.45
2023-03-07T12:19:25.840Z,74.88
2023-03-07T12:20:25.826Z,76.35
2023-03-07T12:21:25.812Z,74.82
2023-03-07T12:22:25.798Z,71.68
2023-03-07T12:23:25.792Z,69.35
2023-03-07T12:24:25.770Z,70.12
2023-03-07T12:25:25.759Z,71.96
2023-03-07T12:26:25.743Z,70.02
2023-03-07T12:27:26.823Z,68.37
2023-03-07T12:28:25.737Z,70.37
2023-03-07T12:29:25.707Z,70.27
2023-03-07T12:30:25.688Z,71.70
2023-03-07T12:31:25.715Z,72.75
2023-03-07T12:32:25.881Z,75.13
2023-03-07T12:33:27.444Z,75.60
2023-03-07T12:34:25.637Z,71.80
2023-03-07T12:35:25.663Z,76.08
2023-03-07T12:36:25.630Z,74.46
2023-03-07T12:37:25.610Z,71.76
2023-03-07T12:38:25.581Z,74.14
2023-03-07T12:39:25.574Z,74.43
2023-03-07T12:40:25.553Z,78.27
2023-03-07T12:41:25.542Z,74.84
2023-03-07T12:42:25.529Z,74.99
2023-03-07T12:43:25.535Z,73.41
2023-03-07T12:44:25.496Z,73.99
2023-03-07T12:45:27.242Z,74.18
2023-03-07T12:46:25.515Z,71.42
2023-03-07T12:47:25.464Z,70.84
2023-03-07T12:48:25.442Z,72.08
2023-03-07T12:49:25.434Z,71.32
2023-03-07T12:50:25.413Z,73.26
2023-03-07T12:51:26.815Z,72.75
2023-03-07T12:52:25.384Z,73.51
2023-03-07T12:53:25.377Z,72.08
2023-03-07T12:54:25.363Z,71.89
2023-03-07T12:55:25.347Z,74.98